Terminal Aerodrome Forecast
Issued by NWS

Home | Current Version | Previous Version | Text Only | Print | Product List | Glossary On
Versions: 1 2 3 4 5 6 7 8 9 10 11 12 13 14 15 16 17 18 19 20
000
FTUS46 KLOX 262324
TAFOXR
TAF
KOXR 262324Z 2700/2724 26013KT P6SM FEW020
     FM270300 27006KT P6SM SKC
     FM270800 VRB03KT P6SM BKN015
     FM271700 24006KT P6SM BKN020
     FM271900 26010KT P6SM FEW020=

USA.gov is the U.S. government's official web portal to all federal, state and local government web resources and services.